Terminal Aerodrome Forecast
Issued by NWS

Home | Current Version | Previous Version | Text Only | Print | Product List | Glossary On
Versions: 1 2 3 4 5 6 7 8 9 10 11 12 13 14
000
FTUS42 TJSJ 211700 RRA
TAFJBQ
TAF
TJBQ 211742Z 2118/2218 08015G24KT P6SM SCT025
     FM212300 10008KT P6SM FEW025 SCT040
     FM221400 08015G25KT P6SM VCSH SCT025
      AMD NOT SKED 2202/2211=

USA.gov is the U.S. government's official web portal to all federal, state and local government web resources and services.